sensor_id;sensor_type;location;lat;lon;timestamp;temperature;humidity
28546;DHT22;15749;49.606;8.738;2022-09-17T00:01:03;17.40;99.40
28546;DHT22;15749;49.606;8.738;2022-09-17T00:03:53;17.30;99.00
28546;DHT22;15749;49.606;8.738;2022-09-17T00:06:41;17.30;99.00
28546;DHT22;15749;49.606;8.738;2022-09-17T00:09:28;17.30;98.80
28546;DHT22;15749;49.606;8.738;2022-09-17T00:12:17;17.30;98.80
28546;DHT22;15749;49.606;8.738;2022-09-17T00:15:06;17.30;99.00
28546;DHT22;15749;49.606;8.738;2022-09-17T00:17:55;17.20;99.10
28546;DHT22;15749;49.606;8.738;2022-09-17T00:20:45;17.20;99.00
28546;DHT22;15749;49.606;8.738;2022-09-17T00:23:33;17.20;98.70
28546;DHT22;15749;49.606;8.738;2022-09-17T00:26:20;17.20;99.10
28546;DHT22;15749;49.606;8.738;2022-09-17T00:29:09;17.20;99.00
28546;DHT22;15749;49.606;8.738;2022-09-17T00:31:57;17.20;98.40
28546;DHT22;15749;49.606;8.738;2022-09-17T00:34:44;17.10;98.70
28546;DHT22;15749;49.606;8.738;2022-09-17T00:37:34;17.10;99.00
28546;DHT22;15749;49.606;8.738;2022-09-17T00:40:21;17.10;99.30
28546;DHT22;15749;49.606;8.738;2022-09-17T00:43:10;17.10;99.40
28546;DHT22;15749;49.606;8.738;2022-09-17T00:45:59;17.10;99.50
28546;DHT22;15749;49.606;8.738;2022-09-17T00:48:46;17.10;99.50
28546;DHT22;15749;49.606;8.738;2022-09-17T00:51:37;17.10;99.80
28546;DHT22;15749;49.606;8.738;2022-09-17T00:54:26;17.10;99.20
28546;DHT22;15749;49.606;8.738;2022-09-17T00:57:15;17.10;99.90
28546;DHT22;15749;49.606;8.738;2022-09-17T01:00:04;17.10;99.90
28546;DHT22;15749;49.606;8.738;2022-09-17T01:02:54;17.10;99.00
28546;DHT22;15749;49.606;8.738;2022-09-17T01:05:46;17.10;98.70
28546;DHT22;15749;49.606;8.738;2022-09-17T01:08:43;17.10;98.80
28546;DHT22;15749;49.606;8.738;2022-09-17T01:12:07;17.00;99.00
28546;DHT22;15749;49.606;8.738;2022-09-17T01:15:20;17.00;98.60
28546;DHT22;15749;49.606;8.738;2022-09-17T01:18:24;17.00;98.70
28546;DHT22;15749;49.606;8.738;2022-09-17T01:21:41;17.00;98.70
28546;DHT22;15749;49.606;8.738;2022-09-17T01:24:49;17.00;98.90
28546;DHT22;15749;49.606;8.738;2022-09-17T01:28:23;17.00;98.10
28546;DHT22;15749;49.606;8.738;2022-09-17T01:31:29;17.00;98.30
28546;DHT22;15749;49.606;8.738;2022-09-17T01:34:26;17.00;98.20
28546;DHT22;15749;49.606;8.738;2022-09-17T01:37:22;16.90;98.40
28546;DHT22;15749;49.606;8.738;2022-09-17T01:40:22;16.90;98.00
28546;DHT22;15749;49.606;8.738;2022-09-17T01:43:18;16.90;98.40
28546;DHT22;15749;49.606;8.738;2022-09-17T01:46:15;16.90;98.40
28546;DHT22;15749;49.606;8.738;2022-09-17T01:49:09;16.90;98.20
28546;DHT22;15749;49.606;8.738;2022-09-17T01:51:57;16.90;98.30
28546;DHT22;15749;49.606;8.738;2022-09-17T01:54:49;16.90;98.20
28546;DHT22;15749;49.606;8.738;2022-09-17T01:57:42;16.90;98.30
28546;DHT22;15749;49.606;8.738;2022-09-17T02:00:31;16.80;98.80
28546;DHT22;15749;49.606;8.738;2022-09-17T02:03:21;16.80;99.30
28546;DHT22;15749;49.606;8.738;2022-09-17T02:06:15;16.80;98.90
28546;DHT22;15749;49.606;8.738;2022-09-17T02:09:07;16.80;98.80
28546;DHT22;15749;49.606;8.738;2022-09-17T02:12:02;16.80;98.50
28546;DHT22;15749;49.606;8.738;2022-09-17T02:14:56;16.80;98.50
28546;DHT22;15749;49.606;8.738;2022-09-17T02:17:48;16.70;97.90
28546;DHT22;15749;49.606;8.738;2022-09-17T02:20:41;16.70;98.40
28546;DHT22;15749;49.606;8.738;2022-09-17T02:23:35;16.70;98.60
28546;DHT22;15749;49.606;8.738;2022-09-17T02:26:28;16.70;98.40
28546;DHT22;15749;49.606;8.738;2022-09-17T02:29:22;16.70;98.70
28546;DHT22;15749;49.606;8.738;2022-09-17T02:32:12;16.70;98.70
28546;DHT22;15749;49.606;8.738;2022-09-17T02:35:00;16.70;99.30
28546;DHT22;15749;49.606;8.738;2022-09-17T02:37:47;16.70;99.40
28546;DHT22;15749;49.606;8.738;2022-09-17T02:40:46;16.70;99.60
28546;DHT22;15749;49.606;8.738;2022-09-17T02:43:41;16.70;98.70
28546;DHT22;15749;49.606;8.738;2022-09-17T02:46:50;16.60;97.90
28546;DHT22;15749;49.606;8.738;2022-09-17T02:50:05;16.60;97.80
28546;DHT22;15749;49.606;8.738;2022-09-17T02:53:09;16.60;98.00
28546;DHT22;15749;49.606;8.738;2022-09-17T02:56:11;16.60;98.90
28546;DHT22;15749;49.606;8.738;2022-09-17T02:59:09;16.60;98.80
28546;DHT22;15749;49.606;8.738;2022-09-17T03:02:02;16.60;98.30
28546;DHT22;15749;49.606;8.738;2022-09-17T03:04:54;16.60;98.50
28546;DHT22;15749;49.606;8.738;2022-09-17T03:07:42;16.50;99.30
28546;DHT22;15749;49.606;8.738;2022-09-17T03:10:29;16.50;99.20
28546;DHT22;15749;49.606;8.738;2022-09-17T03:13:20;16.60;99.10
28546;DHT22;15749;49.606;8.738;2022-09-17T03:16:07;16.50;98.70
28546;DHT22;15749;49.606;8.738;2022-09-17T03:18:55;16.60;98.90
28546;DHT22;15749;49.606;8.738;2022-09-17T03:21:43;16.50;98.70
28546;DHT22;15749;49.606;8.738;2022-09-17T03:24:30;16.50;98.70
28546;DHT22;15749;49.606;8.738;2022-09-17T03:27:17;16.50;98.60
28546;DHT22;15749;49.606;8.738;2022-09-17T03:30:07;16.50;98.90
28546;DHT22;15749;49.606;8.738;2022-09-17T03:32:55;16.50;98.80
28546;DHT22;15749;49.606;8.738;2022-09-17T03:35:42;16.50;99.20
28546;DHT22;15749;49.606;8.738;2022-09-17T03:38:30;16.50;99.10
28546;DHT22;15749;49.606;8.738;2022-09-17T03:41:18;16.50;99.30
28546;DHT22;15749;49.606;8.738;2022-09-17T03:44:06;16.50;99.30
28546;DHT22;15749;49.606;8.738;2022-09-17T03:46:56;16.50;99.60
28546;DHT22;15749;49.606;8.738;2022-09-17T03:49:44;16.60;99.60
28546;DHT22;15749;49.606;8.738;2022-09-17T03:52:31;16.50;99.90
28546;DHT22;15749;49.606;8.738;2022-09-17T03:55:19;16.60;99.90
28546;DHT22;15749;49.606;8.738;2022-09-17T03:58:06;16.60;99.90
28546;DHT22;15749;49.606;8.738;2022-09-17T04:00:54;16.60;99.90
28546;DHT22;15749;49.606;8.738;2022-09-17T04:03:44;16.60;99.90
28546;DHT22;15749;49.606;8.738;2022-09-17T04:06:31;16.60;99.90
28546;DHT22;15749;49.606;8.738;2022-09-17T04:09:19;16.70;99.90
28546;DHT22;15749;49.606;8.738;2022-09-17T04:12:06;16.70;99.90
28546;DHT22;15749;49.606;8.738;2022-09-17T04:14:53;16.70;99.90
28546;DHT22;15749;49.606;8.738;2022-09-17T04:17:41;16.70;99.90
28546;DHT22;15749;49.606;8.738;2022-09-17T04:20:30;16.70;99.80
28546;DHT22;15749;49.606;8.738;2022-09-17T04:23:18;16.70;99.60
28546;DHT22;15749;49.606;8.738;2022-09-17T04:26:05;16.70;99.50
28546;DHT22;15749;49.606;8.738;2022-09-17T04:28:52;16.70;99.60
28546;DHT22;15749;49.606;8.738;2022-09-17T04:31:40;16.70;99.90
28546;DHT22;15749;49.606;8.738;2022-09-17T04:34:27;16.70;99.90
28546;DHT22;15749;49.606;8.738;2022-09-17T04:37:18;16.70;99.90
28546;DHT22;15749;49.606;8.738;2022-09-17T04:40:07;16.70;99.90
28546;DHT22;15749;49.606;8.738;2022-09-17T04:42:57;16.80;99.90
28546;DHT22;15749;49.606;8.738;2022-09-17T04:45:48;16.70;99.90
28546;DHT22;15749;49.606;8.738;2022-09-17T04:48:36;16.70;99.90
28546;DHT22;15749;49.606;8.738;2022-09-17T04:51:24;16.80;99.90
28546;DHT22;15749;49.606;8.738;2022-09-17T04:54:12;16.80;99.90
28546;DHT22;15749;49.606;8.738;2022-09-17T04:57:00;16.80;99.70
28546;DHT22;15749;49.606;8.738;2022-09-17T04:59:48;16.80;99.90
28546;DHT22;15749;49.606;8.738;2022-09-17T05:02:35;16.80;99.90
28546;DHT22;15749;49.606;8.738;2022-09-17T05:05:23;16.80;99.80
28546;DHT22;15749;49.606;8.738;2022-09-17T05:08:11;16.80;99.50
28546;DHT22;15749;49.606;8.738;2022-09-17T05:11:00;16.80;99.90
28546;DHT22;15749;49.606;8.738;2022-09-17T05:13:47;16.70;99.20
28546;DHT22;15749;49.606;8.738;2022-09-17T05:16:35;16.80;99.50
28546;DHT22;15749;49.606;8.738;2022-09-17T05:19:23;16.80;99.40
28546;DHT22;15749;49.606;8.738;2022-09-17T05:22:10;16.70;99.40
28546;DHT22;15749;49.606;8.738;2022-09-17T05:24:57;16.70;99.50
28546;DHT22;15749;49.606;8.738;2022-09-17T05:27:46;16.70;99.90
28546;DHT22;15749;49.606;8.738;2022-09-17T05:30:34;16.70;99.90
28546;DHT22;15749;49.606;8.738;2022-09-17T05:33:21;16.70;99.90
28546;DHT22;15749;49.606;8.738;2022-09-17T05:36:09;16.70;99.90
28546;DHT22;15749;49.606;8.738;2022-09-17T05:38:56;16.70;99.80
28546;DHT22;15749;49.606;8.738;2022-09-17T05:41:43;16.70;99.40
28546;DHT22;15749;49.606;8.738;2022-09-17T05:44:32;16.70;99.40
28546;DHT22;15749;49.606;8.738;2022-09-17T05:47:19;16.70;99.20
28546;DHT22;15749;49.606;8.738;2022-09-17T05:50:07;16.70;99.60
28546;DHT22;15749;49.606;8.738;2022-09-17T05:52:56;16.70;99.50
28546;DHT22;15749;49.606;8.738;2022-09-17T05:55:43;16.70;99.50
28546;DHT22;15749;49.606;8.738;2022-09-17T05:58:31;16.70;99.80
28546;DHT22;15749;49.606;8.738;2022-09-17T06:01:20;16.70;99.40
28546;DHT22;15749;49.606;8.738;2022-09-17T06:04:08;16.70;98.80
28546;DHT22;15749;49.606;8.738;2022-09-17T06:06:55;16.70;99.20
28546;DHT22;15749;49.606;8.738;2022-09-17T06:09:42;16.60;98.90
28546;DHT22;15749;49.606;8.738;2022-09-17T06:12:30;16.60;98.90
28546;DHT22;15749;49.606;8.738;2022-09-17T06:15:21;16.60;99.00
28546;DHT22;15749;49.606;8.738;2022-09-17T06:18:10;16.60;99.00
28546;DHT22;15749;49.606;8.738;2022-09-17T06:20:59;16.60;98.70
28546;DHT22;15749;49.606;8.738;2022-09-17T06:23:47;16.60;98.70
28546;DHT22;15749;49.606;8.738;2022-09-17T06:26:35;16.50;98.70
28546;DHT22;15749;49.606;8.738;2022-09-17T06:29:24;16.50;98.80
28546;DHT22;15749;49.606;8.738;2022-09-17T06:32:11;16.50;98.70
28546;DHT22;15749;49.606;8.738;2022-09-17T06:35:03;16.50;98.60
28546;DHT22;15749;49.606;8.738;2022-09-17T06:37:52;16.50;98.30
28546;DHT22;15749;49.606;8.738;2022-09-17T06:40:39;16.50;98.70
28546;DHT22;15749;49.606;8.738;2022-09-17T06:43:27;16.50;98.60
28546;DHT22;15749;49.606;8.738;2022-09-17T06:46:15;16.50;98.80
28546;DHT22;15749;49.606;8.738;2022-09-17T06:49:02;16.40;98.70
28546;DHT22;15749;49.606;8.738;2022-09-17T06:51:51;16.40;99.00
28546;DHT22;15749;49.606;8.738;2022-09-17T06:54:39;16.40;99.00
28546;DHT22;15749;49.606;8.738;2022-09-17T06:57:26;16.40;99.50
28546;DHT22;15749;49.606;8.738;2022-09-17T07:00:14;16.40;99.80
28546;DHT22;15749;49.606;8.738;2022-09-17T07:03:02;16.50;99.70
28546;DHT22;15749;49.606;8.738;2022-09-17T07:05:50;16.50;99.60
28546;DHT22;15749;49.606;8.738;2022-09-17T07:08:38;16.50;99.90
28546;DHT22;15749;49.606;8.738;2022-09-17T07:11:27;16.50;99.50
28546;DHT22;15749;49.606;8.738;2022-09-17T07:14:15;16.50;99.90
28546;DHT22;15749;49.606;8.738;2022-09-17T07:17:03;16.50;99.90
28546;DHT22;15749;49.606;8.738;2022-09-17T07:19:52;16.50;99.90
28546;DHT22;15749;49.606;8.738;2022-09-17T07:22:39;16.50;99.80
28546;DHT22;15749;49.606;8.738;2022-09-17T07:25:28;16.50;99.90
28546;DHT22;15749;49.606;8.738;2022-09-17T07:28:15;16.50;99.90
28546;DHT22;15749;49.606;8.738;2022-09-17T07:31:03;16.50;99.90
28546;DHT22;15749;49.606;8.738;2022-09-17T07:33:51;16.50;99.90
28546;DHT22;15749;49.606;8.738;2022-09-17T07:36:38;16.60;99.90
28546;DHT22;15749;49.606;8.738;2022-09-17T07:39:26;16.60;99.90
28546;DHT22;15749;49.606;8.738;2022-09-17T07:42:15;16.60;99.90
28546;DHT22;15749;49.606;8.738;2022-09-17T07:45:03;16.60;99.90
28546;DHT22;15749;49.606;8.738;2022-09-17T07:47:51;16.70;99.90
28546;DHT22;15749;49.606;8.738;2022-09-17T07:50:38;16.70;99.90
28546;DHT22;15749;49.606;8.738;2022-09-17T07:53:26;16.70;99.90
28546;DHT22;15749;49.606;8.738;2022-09-17T07:56:13;16.70;99.90
28546;DHT22;15749;49.606;8.738;2022-09-17T07:59:03;16.70;99.90
28546;DHT22;15749;49.606;8.738;2022-09-17T08:01:50;16.80;99.90
28546;DHT22;15749;49.606;8.738;2022-09-17T08:04:40;16.80;99.90
28546;DHT22;15749;49.606;8.738;2022-09-17T08:07:28;16.80;99.90
28546;DHT22;15749;49.606;8.738;2022-09-17T08:10:16;16.80;99.90
28546;DHT22;15749;49.606;8.738;2022-09-17T08:13:06;16.90;99.90
28546;DHT22;15749;49.606;8.738;2022-09-17T08:15:58;16.80;99.90
28546;DHT22;15749;49.606;8.738;2022-09-17T08:18:46;16.90;99.90
28546;DHT22;15749;49.606;8.738;2022-09-17T08:21:35;16.90;99.90
28546;DHT22;15749;49.606;8.738;2022-09-17T08:24:48;16.90;99.90
28546;DHT22;15749;49.606;8.738;2022-09-17T08:27:36;16.90;99.90
28546;DHT22;15749;49.606;8.738;2022-09-17T08:30:24;17.00;99.90
28546;DHT22;15749;49.606;8.738;2022-09-17T08:33:15;17.00;99.90
28546;DHT22;15749;49.606;8.738;2022-09-17T08:36:03;17.00;99.90
28546;DHT22;15749;49.606;8.738;2022-09-17T08:38:52;17.00;99.90
28546;DHT22;15749;49.606;8.738;2022-09-17T08:41:51;17.00;99.90
28546;DHT22;15749;49.606;8.738;2022-09-17T08:44:43;17.00;99.90
28546;DHT22;15749;49.606;8.738;2022-09-17T08:47:34;17.10;99.90
28546;DHT22;15749;49.606;8.738;2022-09-17T08:50:28;17.10;99.90
28546;DHT22;15749;49.606;8.738;2022-09-17T08:53:25;17.10;99.90
28546;DHT22;15749;49.606;8.738;2022-09-17T08:56:20;17.10;99.90
28546;DHT22;15749;49.606;8.738;2022-09-17T08:59:16;17.20;99.90
28546;DHT22;15749;49.606;8.738;2022-09-17T09:02:19;17.20;99.90
28546;DHT22;15749;49.606;8.738;2022-09-17T09:05:15;17.20;99.90
28546;DHT22;15749;49.606;8.738;2022-09-17T09:08:11;17.30;99.90
28546;DHT22;15749;49.606;8.738;2022-09-17T09:11:04;17.40;99.90
28546;DHT22;15749;49.606;8.738;2022-09-17T09:13:57;17.40;99.90
28546;DHT22;15749;49.606;8.738;2022-09-17T09:16:48;17.50;99.90
28546;DHT22;15749;49.606;8.738;2022-09-17T09:19:41;17.60;99.90
28546;DHT22;15749;49.606;8.738;2022-09-17T09:22:41;17.70;99.90
28546;DHT22;15749;49.606;8.738;2022-09-17T09:25:38;17.80;99.90
28546;DHT22;15749;49.606;8.738;2022-09-17T09:28:45;18.00;99.90
28546;DHT22;15749;49.606;8.738;2022-09-17T09:31:57;18.10;99.90
28546;DHT22;15749;49.606;8.738;2022-09-17T09:35:10;18.20;99.90
28546;DHT22;15749;49.606;8.738;2022-09-17T09:38:05;18.40;99.90
28546;DHT22;15749;49.606;8.738;2022-09-17T09:41:07;18.50;99.90
28546;DHT22;15749;49.606;8.738;2022-09-17T09:44:00;18.60;99.90
28546;DHT22;15749;49.606;8.738;2022-09-17T09:47:02;18.80;99.90
28546;DHT22;15749;49.606;8.738;2022-09-17T09:50:14;18.90;99.90
28546;DHT22;15749;49.606;8.738;2022-09-17T09:53:13;19.00;99.90
28546;DHT22;15749;49.606;8.738;2022-09-17T09:56:27;19.10;99.90
28546;DHT22;15749;49.606;8.738;2022-09-17T09:59:23;19.20;99.90
28546;DHT22;15749;49.606;8.738;2022-09-17T10:02:10;19.30;99.90
28546;DHT22;15749;49.606;8.738;2022-09-17T10:05:07;19.40;99.90
28546;DHT22;15749;49.606;8.738;2022-09-17T10:07:56;19.50;99.90
28546;DHT22;15749;49.606;8.738;2022-09-17T10:10:54;19.50;99.90
28546;DHT22;15749;49.606;8.738;2022-09-17T10:13:44;19.60;99.90
28546;DHT22;15749;49.606;8.738;2022-09-17T10:16:32;19.70;99.90
28546;DHT22;15749;49.606;8.738;2022-09-17T10:19:21;19.70;99.90
28546;DHT22;15749;49.606;8.738;2022-09-17T10:22:19;19.80;99.90
28546;DHT22;15749;49.606;8.738;2022-09-17T10:25:26;19.80;99.90
28546;DHT22;15749;49.606;8.738;2022-09-17T10:28:31;19.90;99.90
28546;DHT22;15749;49.606;8.738;2022-09-17T10:31:23;19.80;99.90
28546;DHT22;15749;49.606;8.738;2022-09-17T10:34:18;19.90;99.90
28546;DHT22;15749;49.606;8.738;2022-09-17T10:37:35;19.90;99.90
28546;DHT22;15749;49.606;8.738;2022-09-17T10:40:30;20.00;99.90
28546;DHT22;15749;49.606;8.738;2022-09-17T10:43:21;20.00;99.90
28546;DHT22;15749;49.606;8.738;2022-09-17T10:46:13;20.10;99.90
28546;DHT22;15749;49.606;8.738;2022-09-17T10:49:09;20.10;99.90
28546;DHT22;15749;49.606;8.738;2022-09-17T10:52:06;20.10;99.90
28546;DHT22;15749;49.606;8.738;2022-09-17T10:55:20;20.10;99.90
28546;DHT22;15749;49.606;8.738;2022-09-17T10:58:18;20.10;99.90
28546;DHT22;15749;49.606;8.738;2022-09-17T11:01:22;20.10;99.40
28546;DHT22;15749;49.606;8.738;2022-09-17T11:04:30;20.10;98.60
28546;DHT22;15749;49.606;8.738;2022-09-17T11:07:41;20.00;98.40
28546;DHT22;15749;49.606;8.738;2022-09-17T11:10:36;20.00;98.90
28546;DHT22;15749;49.606;8.738;2022-09-17T11:13:36;19.90;98.70
28546;DHT22;15749;49.606;8.738;2022-09-17T11:16:34;19.90;99.00
28546;DHT22;15749;49.606;8.738;2022-09-17T11:19:31;19.80;98.60
28546;DHT22;15749;49.606;8.738;2022-09-17T11:22:42;19.80;99.70
28546;DHT22;15749;49.606;8.738;2022-09-17T11:25:43;19.80;99.50
28546;DHT22;15749;49.606;8.738;2022-09-17T11:28:43;19.70;99.90
28546;DHT22;15749;49.606;8.738;2022-09-17T11:31:47;19.70;99.90
28546;DHT22;15749;49.606;8.738;2022-09-17T11:34:43;19.70;99.80
28546;DHT22;15749;49.606;8.738;2022-09-17T11:37:35;19.70;99.90
28546;DHT22;15749;49.606;8.738;2022-09-17T11:40:33;19.70;99.90
28546;DHT22;15749;49.606;8.738;2022-09-17T11:43:26;19.70;99.90
28546;DHT22;15749;49.606;8.738;2022-09-17T11:46:17;19.70;99.90
28546;DHT22;15749;49.606;8.738;2022-09-17T11:49:12;19.70;99.90
28546;DHT22;15749;49.606;8.738;2022-09-17T11:52:21;19.70;99.90
28546;DHT22;15749;49.606;8.738;2022-09-17T11:55:18;19.70;99.90
28546;DHT22;15749;49.606;8.738;2022-09-17T11:58:13;19.80;99.90
28546;DHT22;15749;49.606;8.738;2022-09-17T12:01:07;19.80;99.90
28546;DHT22;15749;49.606;8.738;2022-09-17T12:04:00;19.80;99.90
28546;DHT22;15749;49.606;8.738;2022-09-17T12:06:56;19.80;99.90
28546;DHT22;15749;49.606;8.738;2022-09-17T12:09:48;19.80;99.90
28546;DHT22;15749;49.606;8.738;2022-09-17T12:12:47;19.90;99.90
28546;DHT22;15749;49.606;8.738;2022-09-17T12:15:42;19.90;99.90
28546;DHT22;15749;49.606;8.738;2022-09-17T12:18:50;19.80;99.90
28546;DHT22;15749;49.606;8.738;2022-09-17T12:21:43;19.90;99.90
28546;DHT22;15749;49.606;8.738;2022-09-17T12:24:32;19.90;99.90
28546;DHT22;15749;49.606;8.738;2022-09-17T12:27:30;19.80;99.90
28546;DHT22;15749;49.606;8.738;2022-09-17T12:30:22;19.90;99.80
28546;DHT22;15749;49.606;8.738;2022-09-17T12:33:18;19.90;99.90
28546;DHT22;15749;49.606;8.738;2022-09-17T12:36:25;19.90;99.90
28546;DHT22;15749;49.606;8.738;2022-09-17T12:43:16;19.90;99.90
28546;DHT22;15749;49.606;8.738;2022-09-17T12:46:25;20.00;99.40
28546;DHT22;15749;49.606;8.738;2022-09-17T12:49:38;19.90;99.10
28546;DHT22;15749;49.606;8.738;2022-09-17T12:52:43;19.90;98.70
28546;DHT22;15749;49.606;8.738;2022-09-17T12:55:46;19.90;97.90
28546;DHT22;15749;49.606;8.738;2022-09-17T12:58:55;19.90;98.10
28546;DHT22;15749;49.606;8.738;2022-09-17T13:01:53;19.90;97.40
28546;DHT22;15749;49.606;8.738;2022-09-17T13:05:06;19.90;98.20
28546;DHT22;15749;49.606;8.738;2022-09-17T13:11:51;19.90;97.70
28546;DHT22;15749;49.606;8.738;2022-09-17T13:15:32;19.90;98.30
28546;DHT22;15749;49.606;8.738;2022-09-17T13:18:28;19.80;97.90
28546;DHT22;15749;49.606;8.738;2022-09-17T13:21:24;19.90;98.10
28546;DHT22;15749;49.606;8.738;2022-09-17T13:24:20;19.90;98.50
28546;DHT22;15749;49.606;8.738;2022-09-17T13:27:21;19.90;97.80
28546;DHT22;15749;49.606;8.738;2022-09-17T13:30:11;19.90;98.30
28546;DHT22;15749;49.606;8.738;2022-09-17T13:33:01;19.90;98.60
28546;DHT22;15749;49.606;8.738;2022-09-17T13:35:49;19.90;99.00
28546;DHT22;15749;49.606;8.738;2022-09-17T13:38:40;19.80;98.00
28546;DHT22;15749;49.606;8.738;2022-09-17T13:41:33;19.80;97.90
28546;DHT22;15749;49.606;8.738;2022-09-17T13:44:22;19.80;97.40
28546;DHT22;15749;49.606;8.738;2022-09-17T13:47:18;19.80;97.90
28546;DHT22;15749;49.606;8.738;2022-09-17T13:50:09;19.90;96.80
28546;DHT22;15749;49.606;8.738;2022-09-17T13:53:04;19.80;97.40
28546;DHT22;15749;49.606;8.738;2022-09-17T13:55:54;19.90;97.70
28546;DHT22;15749;49.606;8.738;2022-09-17T13:58:45;19.90;97.80
28546;DHT22;15749;49.606;8.738;2022-09-17T14:02:00;19.90;98.00
28546;DHT22;15749;49.606;8.738;2022-09-17T14:04:52;19.90;96.80
28546;DHT22;15749;49.606;8.738;2022-09-17T14:07:45;19.90;97.60
28546;DHT22;15749;49.606;8.738;2022-09-17T14:10:40;19.90;96.60
28546;DHT22;15749;49.606;8.738;2022-09-17T14:13:43;19.90;96.90
28546;DHT22;15749;49.606;8.738;2022-09-17T14:16:44;19.90;95.80
28546;DHT22;15749;49.606;8.738;2022-09-17T14:19:34;19.90;95.40
28546;DHT22;15749;49.606;8.738;2022-09-17T14:22:36;19.90;96.10
28546;DHT22;15749;49.606;8.738;2022-09-17T14:25:31;19.90;96.70
28546;DHT22;15749;49.606;8.738;2022-09-17T14:28:28;19.90;95.10
28546;DHT22;15749;49.606;8.738;2022-09-17T14:31:29;19.80;94.50
28546;DHT22;15749;49.606;8.738;2022-09-17T14:34:20;19.80;94.60
28546;DHT22;15749;49.606;8.738;2022-09-17T14:37:10;19.80;95.60
28546;DHT22;15749;49.606;8.738;2022-09-17T14:40:00;19.80;95.40
28546;DHT22;15749;49.606;8.738;2022-09-17T14:42:56;19.80;95.80
28546;DHT22;15749;49.606;8.738;2022-09-17T14:45:48;19.80;95.30
28546;DHT22;15749;49.606;8.738;2022-09-17T14:48:39;19.80;94.70
28546;DHT22;15749;49.606;8.738;2022-09-17T14:51:28;19.80;95.00
28546;DHT22;15749;49.606;8.738;2022-09-17T14:54:18;19.80;95.30
28546;DHT22;15749;49.606;8.738;2022-09-17T14:57:19;19.80;95.50
28546;DHT22;15749;49.606;8.738;2022-09-17T15:00:20;19.80;94.80
28546;DHT22;15749;49.606;8.738;2022-09-17T15:03:19;19.80;95.20
28546;DHT22;15749;49.606;8.738;2022-09-17T15:06:19;19.80;94.80
28546;DHT22;15749;49.606;8.738;2022-09-17T15:09:13;19.80;95.70
28546;DHT22;15749;49.606;8.738;2022-09-17T15:12:03;19.80;95.50
28546;DHT22;15749;49.606;8.738;2022-09-17T15:14:52;19.80;95.70
28546;DHT22;15749;49.606;8.738;2022-09-17T15:17:41;19.80;96.10
28546;DHT22;15749;49.606;8.738;2022-09-17T15:20:29;19.80;95.80
28546;DHT22;15749;49.606;8.738;2022-09-17T15:23:22;19.70;95.50
28546;DHT22;15749;49.606;8.738;2022-09-17T15:26:22;19.70;95.20
28546;DHT22;15749;49.606;8.738;2022-09-17T15:29:14;19.70;94.60
28546;DHT22;15749;49.606;8.738;2022-09-17T15:32:08;19.70;96.10
28546;DHT22;15749;49.606;8.738;2022-09-17T15:35:23;19.70;96.20
28546;DHT22;15749;49.606;8.738;2022-09-17T15:38:25;19.70;95.60
28546;DHT22;15749;49.606;8.738;2022-09-17T15:41:29;19.70;95.10
28546;DHT22;15749;49.606;8.738;2022-09-17T15:44:21;19.70;95.60
28546;DHT22;15749;49.606;8.738;2022-09-17T15:47:35;19.70;95.50
28546;DHT22;15749;49.606;8.738;2022-09-17T15:50:31;19.70;95.80
28546;DHT22;15749;49.606;8.738;2022-09-17T15:53:22;19.60;95.90
28546;DHT22;15749;49.606;8.738;2022-09-17T15:56:15;19.60;94.80
28546;DHT22;15749;49.606;8.738;2022-09-17T15:59:04;19.60;95.30
28546;DHT22;15749;49.606;8.738;2022-09-17T16:02:24;19.60;95.90
28546;DHT22;15749;49.606;8.738;2022-09-17T16:08:34;19.50;95.50
28546;DHT22;15749;49.606;8.738;2022-09-17T16:11:23;19.50;96.00
28546;DHT22;15749;49.606;8.738;2022-09-17T16:14:11;19.50;96.30
28546;DHT22;15749;49.606;8.738;2022-09-17T16:16:58;19.50;96.40
28546;DHT22;15749;49.606;8.738;2022-09-17T16:19:55;19.50;96.50
28546;DHT22;15749;49.606;8.738;2022-09-17T16:22:50;19.50;96.30
28546;DHT22;15749;49.606;8.738;2022-09-17T16:25:40;19.40;96.30
28546;DHT22;15749;49.606;8.738;2022-09-17T16:28:28;19.40;96.10
28546;DHT22;15749;49.606;8.738;2022-09-17T16:31:17;19.40;96.50
28546;DHT22;15749;49.606;8.738;2022-09-17T16:34:06;19.40;96.30
28546;DHT22;15749;49.606;8.738;2022-09-17T16:36:53;19.40;96.30
28546;DHT22;15749;49.606;8.738;2022-09-17T16:39:40;19.30;96.20
28546;DHT22;15749;49.606;8.738;2022-09-17T16:42:31;19.30;96.30
28546;DHT22;15749;49.606;8.738;2022-09-17T16:45:18;19.30;95.80
28546;DHT22;15749;49.606;8.738;2022-09-17T16:48:11;19.20;96.10
28546;DHT22;15749;49.606;8.738;2022-09-17T16:50:59;19.20;96.20
28546;DHT22;15749;49.606;8.738;2022-09-17T16:53:47;19.10;96.00
28546;DHT22;15749;49.606;8.738;2022-09-17T16:56:35;19.10;96.30
28546;DHT22;15749;49.606;8.738;2022-09-17T16:59:24;19.10;96.30
28546;DHT22;15749;49.606;8.738;2022-09-17T17:02:12;19.00;96.20
28546;DHT22;15749;49.606;8.738;2022-09-17T17:04:59;19.00;96.20
28546;DHT22;15749;49.606;8.738;2022-09-17T17:07:46;19.00;96.50
28546;DHT22;15749;49.606;8.738;2022-09-17T17:10:36;18.90;96.20
28546;DHT22;15749;49.606;8.738;2022-09-17T17:13:24;18.90;95.90
28546;DHT22;15749;49.606;8.738;2022-09-17T17:16:13;18.90;95.70
28546;DHT22;15749;49.606;8.738;2022-09-17T17:19:01;18.80;95.40
28546;DHT22;15749;49.606;8.738;2022-09-17T17:21:49;18.80;95.80
28546;DHT22;15749;49.606;8.738;2022-09-17T17:24:36;18.80;95.80
28546;DHT22;15749;49.606;8.738;2022-09-17T17:27:23;18.70;96.30
28546;DHT22;15749;49.606;8.738;2022-09-17T17:30:12;18.70;96.30
28546;DHT22;15749;49.606;8.738;2022-09-17T17:33:04;18.70;96.40
28546;DHT22;15749;49.606;8.738;2022-09-17T17:35:51;18.70;96.30
28546;DHT22;15749;49.606;8.738;2022-09-17T17:38:39;18.60;96.30
28546;DHT22;15749;49.606;8.738;2022-09-17T17:41:26;18.60;96.40
28546;DHT22;15749;49.606;8.738;2022-09-17T17:44:13;18.60;96.30
28546;DHT22;15749;49.606;8.738;2022-09-17T17:47:01;18.60;96.20
28546;DHT22;15749;49.606;8.738;2022-09-17T17:49:50;18.60;96.00
28546;DHT22;15749;49.606;8.738;2022-09-17T17:52:37;18.30;95.50
28546;DHT22;15749;49.606;8.738;2022-09-17T17:55:28;18.30;96.10
28546;DHT22;15749;49.606;8.738;2022-09-17T17:58:16;18.30;95.90
28546;DHT22;15749;49.606;8.738;2022-09-17T18:01:09;18.40;96.20
28546;DHT22;15749;49.606;8.738;2022-09-17T18:03:58;18.40;95.10
28546;DHT22;15749;49.606;8.738;2022-09-17T18:06:47;18.40;95.90
28546;DHT22;15749;49.606;8.738;2022-09-17T18:09:35;18.40;95.50
28546;DHT22;15749;49.606;8.738;2022-09-17T18:12:22;18.40;95.80
28546;DHT22;15749;49.606;8.738;2022-09-17T18:15:12;18.40;95.70
28546;DHT22;15749;49.606;8.738;2022-09-17T18:18:00;18.30;96.00
28546;DHT22;15749;49.606;8.738;2022-09-17T18:20:51;18.30;95.50
28546;DHT22;15749;49.606;8.738;2022-09-17T18:23:42;18.30;96.00